sensor_id;sensor_type;location;lat;lon;timestamp;temperature;humidity
24426;DHT22;12611;44.446;26.000;2022-11-04T00:01:38;13.80;79.70
24426;DHT22;12611;44.446;26.000;2022-11-04T00:04:07;13.80;79.80
24426;DHT22;12611;44.446;26.000;2022-11-04T00:06:38;13.80;79.80
24426;DHT22;12611;44.446;26.000;2022-11-04T00:09:09;13.70;79.90
24426;DHT22;12611;44.446;26.000;2022-11-04T00:11:38;13.70;79.80
24426;DHT22;12611;44.446;26.000;2022-11-04T00:14:24;13.70;79.80
24426;DHT22;12611;44.446;26.000;2022-11-04T00:16:52;13.70;80.00
24426;DHT22;12611;44.446;26.000;2022-11-04T00:19:38;13.70;80.00
24426;DHT22;12611;44.446;26.000;2022-11-04T00:22:21;13.70;80.10
24426;DHT22;12611;44.446;26.000;2022-11-04T00:25:08;13.70;80.10
24426;DHT22;12611;44.446;26.000;2022-11-04T00:28:01;13.70;80.10
24426;DHT22;12611;44.446;26.000;2022-11-04T00:30:47;13.60;80.40
24426;DHT22;12611;44.446;26.000;2022-11-04T00:33:15;13.60;80.20
24426;DHT22;12611;44.446;26.000;2022-11-04T00:35:53;13.60;80.20
24426;DHT22;12611;44.446;26.000;2022-11-04T00:38:24;13.60;80.20
24426;DHT22;12611;44.446;26.000;2022-11-04T00:40:52;13.60;80.30
24426;DHT22;12611;44.446;26.000;2022-11-04T00:43:20;13.60;80.70
24426;DHT22;12611;44.446;26.000;2022-11-04T00:45:49;13.70;80.70
24426;DHT22;12611;44.446;26.000;2022-11-04T00:48:17;13.70;80.80
24426;DHT22;12611;44.446;26.000;2022-11-04T00:50:45;13.70;80.70
24426;DHT22;12611;44.446;26.000;2022-11-04T00:53:13;13.70;80.70
24426;DHT22;12611;44.446;26.000;2022-11-04T00:55:43;13.70;81.00
24426;DHT22;12611;44.446;26.000;2022-11-04T00:58:11;13.70;81.60
24426;DHT22;12611;44.446;26.000;2022-11-04T01:00:40;13.70;81.60
24426;DHT22;12611;44.446;26.000;2022-11-04T01:03:08;13.70;81.60
24426;DHT22;12611;44.446;26.000;2022-11-04T01:05:37;13.70;81.70
24426;DHT22;12611;44.446;26.000;2022-11-04T01:08:05;13.70;81.70
24426;DHT22;12611;44.446;26.000;2022-11-04T01:10:34;13.70;81.90
24426;DHT22;12611;44.446;26.000;2022-11-04T01:13:12;13.70;81.80
24426;DHT22;12611;44.446;26.000;2022-11-04T01:15:40;13.70;81.70
24426;DHT22;12611;44.446;26.000;2022-11-04T01:18:08;13.70;81.60
24426;DHT22;12611;44.446;26.000;2022-11-04T01:20:37;13.70;81.80
24426;DHT22;12611;44.446;26.000;2022-11-04T01:23:05;13.70;82.10
24426;DHT22;12611;44.446;26.000;2022-11-04T01:25:33;13.70;82.00
24426;DHT22;12611;44.446;26.000;2022-11-04T01:28:06;13.70;82.10
24426;DHT22;12611;44.446;26.000;2022-11-04T01:30:37;13.70;82.00
24426;DHT22;12611;44.446;26.000;2022-11-04T01:33:05;13.70;82.20
24426;DHT22;12611;44.446;26.000;2022-11-04T01:35:34;13.70;82.50
24426;DHT22;12611;44.446;26.000;2022-11-04T01:38:02;13.60;82.50
24426;DHT22;12611;44.446;26.000;2022-11-04T01:40:38;13.60;82.30
24426;DHT22;12611;44.446;26.000;2022-11-04T01:43:12;13.60;82.40
24426;DHT22;12611;44.446;26.000;2022-11-04T01:45:44;13.60;82.40
24426;DHT22;12611;44.446;26.000;2022-11-04T01:48:17;13.50;82.50
24426;DHT22;12611;44.446;26.000;2022-11-04T01:50:50;13.50;82.30
24426;DHT22;12611;44.446;26.000;2022-11-04T01:53:23;13.50;82.20
24426;DHT22;12611;44.446;26.000;2022-11-04T01:55:55;13.50;82.30
24426;DHT22;12611;44.446;26.000;2022-11-04T01:58:26;13.50;82.80
24426;DHT22;12611;44.446;26.000;2022-11-04T02:00:57;13.50;82.70
24426;DHT22;12611;44.446;26.000;2022-11-04T02:03:30;13.50;82.70
24426;DHT22;12611;44.446;26.000;2022-11-04T02:06:00;13.50;82.70
24426;DHT22;12611;44.446;26.000;2022-11-04T02:08:29;13.50;82.50
24426;DHT22;12611;44.446;26.000;2022-11-04T02:10:59;13.60;82.50
24426;DHT22;12611;44.446;26.000;2022-11-04T02:13:30;13.50;82.70
24426;DHT22;12611;44.446;26.000;2022-11-04T02:16:06;13.50;82.60
24426;DHT22;12611;44.446;26.000;2022-11-04T02:18:53;13.50;82.70
24426;DHT22;12611;44.446;26.000;2022-11-04T02:24:42;13.50;83.10
24426;DHT22;12611;44.446;26.000;2022-11-04T02:27:36;13.50;83.30
24426;DHT22;12611;44.446;26.000;2022-11-04T02:30:09;13.50;83.30
24426;DHT22;12611;44.446;26.000;2022-11-04T02:33:02;13.50;83.30
24426;DHT22;12611;44.446;26.000;2022-11-04T02:35:40;13.50;83.50
24426;DHT22;12611;44.446;26.000;2022-11-04T02:38:17;13.50;83.30
24426;DHT22;12611;44.446;26.000;2022-11-04T02:40:58;13.50;83.50
24426;DHT22;12611;44.446;26.000;2022-11-04T02:43:34;13.50;83.60
24426;DHT22;12611;44.446;26.000;2022-11-04T02:46:13;13.50;83.50
24426;DHT22;12611;44.446;26.000;2022-11-04T02:48:46;13.50;83.50
24426;DHT22;12611;44.446;26.000;2022-11-04T02:51:19;13.50;83.30
24426;DHT22;12611;44.446;26.000;2022-11-04T02:53:55;13.50;83.00
24426;DHT22;12611;44.446;26.000;2022-11-04T02:56:26;13.50;83.00
24426;DHT22;12611;44.446;26.000;2022-11-04T02:58:58;13.50;82.80
24426;DHT22;12611;44.446;26.000;2022-11-04T03:01:33;13.50;82.60
24426;DHT22;12611;44.446;26.000;2022-11-04T03:04:08;13.60;82.60
24426;DHT22;12611;44.446;26.000;2022-11-04T03:06:37;13.50;82.70
24426;DHT22;12611;44.446;26.000;2022-11-04T03:09:07;13.50;82.60
24426;DHT22;12611;44.446;26.000;2022-11-04T03:11:40;13.50;82.70
24426;DHT22;12611;44.446;26.000;2022-11-04T03:14:14;13.50;82.60
24426;DHT22;12611;44.446;26.000;2022-11-04T03:16:46;13.60;82.90
24426;DHT22;12611;44.446;26.000;2022-11-04T03:19:22;13.50;83.20
24426;DHT22;12611;44.446;26.000;2022-11-04T03:21:56;13.50;83.50
24426;DHT22;12611;44.446;26.000;2022-11-04T03:24:26;13.50;83.60
24426;DHT22;12611;44.446;26.000;2022-11-04T03:26:59;13.50;83.90
24426;DHT22;12611;44.446;26.000;2022-11-04T03:29:31;13.50;83.80
24426;DHT22;12611;44.446;26.000;2022-11-04T03:32:06;13.50;84.10
24426;DHT22;12611;44.446;26.000;2022-11-04T03:34:36;13.50;83.90
24426;DHT22;12611;44.446;26.000;2022-11-04T03:37:05;13.50;84.10
24426;DHT22;12611;44.446;26.000;2022-11-04T03:39:33;13.50;84.00
24426;DHT22;12611;44.446;26.000;2022-11-04T03:42:04;13.50;83.80
24426;DHT22;12611;44.446;26.000;2022-11-04T03:44:47;13.60;83.70
24426;DHT22;12611;44.446;26.000;2022-11-04T03:47:19;13.50;83.50
24426;DHT22;12611;44.446;26.000;2022-11-04T03:49:50;13.60;83.80
24426;DHT22;12611;44.446;26.000;2022-11-04T03:52:19;13.60;83.70
24426;DHT22;12611;44.446;26.000;2022-11-04T03:54:48;13.60;83.80
24426;DHT22;12611;44.446;26.000;2022-11-04T03:57:26;13.60;83.90
24426;DHT22;12611;44.446;26.000;2022-11-04T04:00:06;13.60;84.00
24426;DHT22;12611;44.446;26.000;2022-11-04T04:02:57;13.60;84.00
24426;DHT22;12611;44.446;26.000;2022-11-04T04:05:28;13.60;83.90
24426;DHT22;12611;44.446;26.000;2022-11-04T04:08:08;13.60;83.70
24426;DHT22;12611;44.446;26.000;2022-11-04T04:10:41;13.60;83.70
24426;DHT22;12611;44.446;26.000;2022-11-04T04:13:22;13.60;83.60
24426;DHT22;12611;44.446;26.000;2022-11-04T04:15:56;13.60;83.50
24426;DHT22;12611;44.446;26.000;2022-11-04T04:18:32;13.60;83.30
24426;DHT22;12611;44.446;26.000;2022-11-04T04:21:05;13.60;83.20
24426;DHT22;12611;44.446;26.000;2022-11-04T04:23:34;13.70;83.10
24426;DHT22;12611;44.446;26.000;2022-11-04T04:26:22;13.60;82.80
24426;DHT22;12611;44.446;26.000;2022-11-04T04:29:10;13.60;82.70
24426;DHT22;12611;44.446;26.000;2022-11-04T04:31:38;13.60;82.70
24426;DHT22;12611;44.446;26.000;2022-11-04T04:34:19;13.60;82.60
24426;DHT22;12611;44.446;26.000;2022-11-04T04:36:56;13.60;82.50
24426;DHT22;12611;44.446;26.000;2022-11-04T04:39:31;13.50;82.60
24426;DHT22;12611;44.446;26.000;2022-11-04T04:42:18;13.50;82.60
24426;DHT22;12611;44.446;26.000;2022-11-04T04:45:06;13.40;82.70
24426;DHT22;12611;44.446;26.000;2022-11-04T04:47:40;13.40;83.40
24426;DHT22;12611;44.446;26.000;2022-11-04T04:50:19;13.30;82.70
24426;DHT22;12611;44.446;26.000;2022-11-04T04:52:50;13.30;82.70
24426;DHT22;12611;44.446;26.000;2022-11-04T04:55:19;13.30;82.70
24426;DHT22;12611;44.446;26.000;2022-11-04T04:57:47;13.30;82.70
24426;DHT22;12611;44.446;26.000;2022-11-04T05:00:17;13.30;82.60
24426;DHT22;12611;44.446;26.000;2022-11-04T05:02:46;13.30;82.70
24426;DHT22;12611;44.446;26.000;2022-11-04T05:05:17;13.30;82.70
24426;DHT22;12611;44.446;26.000;2022-11-04T05:07:46;13.20;82.90
24426;DHT22;12611;44.446;26.000;2022-11-04T05:10:15;13.20;83.00
24426;DHT22;12611;44.446;26.000;2022-11-04T05:12:44;13.20;83.00
24426;DHT22;12611;44.446;26.000;2022-11-04T05:15:30;13.20;83.10
24426;DHT22;12611;44.446;26.000;2022-11-04T05:18:00;13.20;83.10
24426;DHT22;12611;44.446;26.000;2022-11-04T05:20:30;13.20;83.10
24426;DHT22;12611;44.446;26.000;2022-11-04T05:23:00;13.20;83.10
24426;DHT22;12611;44.446;26.000;2022-11-04T05:25:28;13.20;83.00
24426;DHT22;12611;44.446;26.000;2022-11-04T05:27:59;13.20;83.10
24426;DHT22;12611;44.446;26.000;2022-11-04T05:30:28;13.20;83.40
24426;DHT22;12611;44.446;26.000;2022-11-04T05:32:56;13.20;83.30
24426;DHT22;12611;44.446;26.000;2022-11-04T05:35:32;13.20;83.30
24426;DHT22;12611;44.446;26.000;2022-11-04T05:38:01;13.20;84.40
24426;DHT22;12611;44.446;26.000;2022-11-04T05:40:29;13.20;83.70
24426;DHT22;12611;44.446;26.000;2022-11-04T05:43:00;13.20;83.80
24426;DHT22;12611;44.446;26.000;2022-11-04T05:45:28;13.20;83.90
24426;DHT22;12611;44.446;26.000;2022-11-04T05:47:58;13.20;84.10
24426;DHT22;12611;44.446;26.000;2022-11-04T05:50:26;13.20;84.10
24426;DHT22;12611;44.446;26.000;2022-11-04T05:52:58;13.30;84.10
24426;DHT22;12611;44.446;26.000;2022-11-04T05:55:26;13.30;84.40
24426;DHT22;12611;44.446;26.000;2022-11-04T05:57:55;13.30;84.30
24426;DHT22;12611;44.446;26.000;2022-11-04T06:00:25;13.30;84.60
24426;DHT22;12611;44.446;26.000;2022-11-04T06:02:54;13.30;84.80
24426;DHT22;12611;44.446;26.000;2022-11-04T06:05:24;13.40;84.70
24426;DHT22;12611;44.446;26.000;2022-11-04T06:07:53;13.40;84.60
24426;DHT22;12611;44.446;26.000;2022-11-04T06:10:23;13.40;84.50
24426;DHT22;12611;44.446;26.000;2022-11-04T06:12:55;13.40;85.00
24426;DHT22;12611;44.446;26.000;2022-11-04T06:15:23;13.50;84.80
24426;DHT22;12611;44.446;26.000;2022-11-04T06:17:51;13.60;84.80
24426;DHT22;12611;44.446;26.000;2022-11-04T06:20:20;13.60;85.00
24426;DHT22;12611;44.446;26.000;2022-11-04T06:22:48;13.60;85.10
24426;DHT22;12611;44.446;26.000;2022-11-04T06:25:16;13.60;84.80
24426;DHT22;12611;44.446;26.000;2022-11-04T06:27:47;13.70;85.00
24426;DHT22;12611;44.446;26.000;2022-11-04T06:30:15;13.70;84.80
24426;DHT22;12611;44.446;26.000;2022-11-04T06:32:44;13.70;84.90
24426;DHT22;12611;44.446;26.000;2022-11-04T06:35:12;13.80;84.80
24426;DHT22;12611;44.446;26.000;2022-11-04T06:37:42;13.90;84.70
24426;DHT22;12611;44.446;26.000;2022-11-04T06:40:11;13.90;84.50
24426;DHT22;12611;44.446;26.000;2022-11-04T06:42:39;13.90;84.40
24426;DHT22;12611;44.446;26.000;2022-11-04T06:45:10;14.00;84.40
24426;DHT22;12611;44.446;26.000;2022-11-04T06:47:38;14.10;84.20
24426;DHT22;12611;44.446;26.000;2022-11-04T06:50:07;14.10;84.10
24426;DHT22;12611;44.446;26.000;2022-11-04T06:52:36;14.20;84.10
24426;DHT22;12611;44.446;26.000;2022-11-04T06:55:09;14.30;84.10
24426;DHT22;12611;44.446;26.000;2022-11-04T06:57:37;14.30;84.10
24426;DHT22;12611;44.446;26.000;2022-11-04T07:00:10;14.40;84.00
24426;DHT22;12611;44.446;26.000;2022-11-04T07:02:39;14.50;84.00
24426;DHT22;12611;44.446;26.000;2022-11-04T07:05:08;14.60;83.80
24426;DHT22;12611;44.446;26.000;2022-11-04T07:07:36;14.60;83.40
24426;DHT22;12611;44.446;26.000;2022-11-04T07:10:05;14.70;83.30
24426;DHT22;12611;44.446;26.000;2022-11-04T07:12:34;14.70;83.00
24426;DHT22;12611;44.446;26.000;2022-11-04T07:15:02;14.80;83.00
24426;DHT22;12611;44.446;26.000;2022-11-04T07:17:32;14.90;83.00
24426;DHT22;12611;44.446;26.000;2022-11-04T07:20:00;14.90;82.90
24426;DHT22;12611;44.446;26.000;2022-11-04T07:22:31;14.90;82.50
24426;DHT22;12611;44.446;26.000;2022-11-04T07:24:59;15.00;82.40
24426;DHT22;12611;44.446;26.000;2022-11-04T07:27:28;15.10;82.40
24426;DHT22;12611;44.446;26.000;2022-11-04T07:29:56;15.10;82.20
24426;DHT22;12611;44.446;26.000;2022-11-04T07:32:24;15.20;81.90
24426;DHT22;12611;44.446;26.000;2022-11-04T07:34:54;15.30;81.80
24426;DHT22;12611;44.446;26.000;2022-11-04T07:37:22;15.40;81.70
24426;DHT22;12611;44.446;26.000;2022-11-04T07:39:50;15.40;81.10
24426;DHT22;12611;44.446;26.000;2022-11-04T07:42:19;15.50;81.10
24426;DHT22;12611;44.446;26.000;2022-11-04T07:44:47;15.50;81.00
24426;DHT22;12611;44.446;26.000;2022-11-04T07:47:16;15.60;80.70
24426;DHT22;12611;44.446;26.000;2022-11-04T07:49:44;15.60;80.20
24426;DHT22;12611;44.446;26.000;2022-11-04T07:52:14;15.60;80.20
24426;DHT22;12611;44.446;26.000;2022-11-04T07:54:43;15.70;80.30
24426;DHT22;12611;44.446;26.000;2022-11-04T07:57:11;15.70;80.20
24426;DHT22;12611;44.446;26.000;2022-11-04T07:59:39;15.80;79.80
24426;DHT22;12611;44.446;26.000;2022-11-04T08:02:08;15.80;79.60
24426;DHT22;12611;44.446;26.000;2022-11-04T08:04:37;15.90;79.70
24426;DHT22;12611;44.446;26.000;2022-11-04T08:07:07;15.90;79.50
24426;DHT22;12611;44.446;26.000;2022-11-04T08:09:37;15.90;79.10
24426;DHT22;12611;44.446;26.000;2022-11-04T08:12:05;16.00;78.80
24426;DHT22;12611;44.446;26.000;2022-11-04T08:14:35;16.00;78.60
24426;DHT22;12611;44.446;26.000;2022-11-04T08:17:03;16.10;78.80
24426;DHT22;12611;44.446;26.000;2022-11-04T08:19:32;16.10;78.00
24426;DHT22;12611;44.446;26.000;2022-11-04T08:22:00;16.20;78.50
24426;DHT22;12611;44.446;26.000;2022-11-04T08:24:28;16.30;78.50
24426;DHT22;12611;44.446;26.000;2022-11-04T08:26:58;16.30;78.10
24426;DHT22;12611;44.446;26.000;2022-11-04T08:29:27;16.40;78.10
24426;DHT22;12611;44.446;26.000;2022-11-04T08:31:55;16.40;78.00
24426;DHT22;12611;44.446;26.000;2022-11-04T08:34:23;16.50;78.10
24426;DHT22;12611;44.446;26.000;2022-11-04T08:36:52;16.60;77.70
24426;DHT22;12611;44.446;26.000;2022-11-04T08:39:23;16.70;77.60
24426;DHT22;12611;44.446;26.000;2022-11-04T08:41:52;16.70;76.80
24426;DHT22;12611;44.446;26.000;2022-11-04T08:44:22;16.80;77.00
24426;DHT22;12611;44.446;26.000;2022-11-04T08:46:50;16.90;76.60
24426;DHT22;12611;44.446;26.000;2022-11-04T08:49:18;16.90;76.60
24426;DHT22;12611;44.446;26.000;2022-11-04T08:51:48;17.00;76.60
24426;DHT22;12611;44.446;26.000;2022-11-04T08:54:22;17.10;76.50
24426;DHT22;12611;44.446;26.000;2022-11-04T08:56:51;17.20;76.40
24426;DHT22;12611;44.446;26.000;2022-11-04T08:59:19;17.20;76.20
24426;DHT22;12611;44.446;26.000;2022-11-04T09:01:49;17.30;76.10
24426;DHT22;12611;44.446;26.000;2022-11-04T09:04:18;17.40;76.00
24426;DHT22;12611;44.446;26.000;2022-11-04T09:06:49;17.40;75.90
24426;DHT22;12611;44.446;26.000;2022-11-04T09:09:23;17.50;75.80
24426;DHT22;12611;44.446;26.000;2022-11-04T09:11:51;17.50;75.20
24426;DHT22;12611;44.446;26.000;2022-11-04T09:14:20;17.60;74.80
24426;DHT22;12611;44.446;26.000;2022-11-04T09:16:51;17.60;74.70
24426;DHT22;12611;44.446;26.000;2022-11-04T09:19:20;17.70;74.10
24426;DHT22;12611;44.446;26.000;2022-11-04T09:21:49;17.70;73.90
24426;DHT22;12611;44.446;26.000;2022-11-04T09:24:17;17.70;74.20
24426;DHT22;12611;44.446;26.000;2022-11-04T09:26:45;17.80;74.10
24426;DHT22;12611;44.446;26.000;2022-11-04T09:29:14;17.80;73.70
24426;DHT22;12611;44.446;26.000;2022-11-04T09:31:42;17.90;73.80
24426;DHT22;12611;44.446;26.000;2022-11-04T09:34:12;18.00;73.80
24426;DHT22;12611;44.446;26.000;2022-11-04T09:36:40;18.00;73.70
24426;DHT22;12611;44.446;26.000;2022-11-04T09:39:09;18.10;73.60
24426;DHT22;12611;44.446;26.000;2022-11-04T09:41:50;18.10;73.40
24426;DHT22;12611;44.446;26.000;2022-11-04T09:44:24;18.20;73.00
24426;DHT22;12611;44.446;26.000;2022-11-04T09:46:57;18.30;72.80
24426;DHT22;12611;44.446;26.000;2022-11-04T09:49:31;18.30;72.70
24426;DHT22;12611;44.446;26.000;2022-11-04T09:52:02;18.40;72.80
24426;DHT22;12611;44.446;26.000;2022-11-04T09:54:39;18.50;72.00
24426;DHT22;12611;44.446;26.000;2022-11-04T09:57:19;18.50;71.20
24426;DHT22;12611;44.446;26.000;2022-11-04T09:59:48;18.60;71.10
24426;DHT22;12611;44.446;26.000;2022-11-04T10:02:39;18.60;70.90
24426;DHT22;12611;44.446;26.000;2022-11-04T10:05:22;18.70;70.50
24426;DHT22;12611;44.446;26.000;2022-11-04T10:10:57;18.80;70.80
24426;DHT22;12611;44.446;26.000;2022-11-04T10:13:32;18.90;70.90
24426;DHT22;12611;44.446;26.000;2022-11-04T10:16:25;19.00;70.80
24426;DHT22;12611;44.446;26.000;2022-11-04T10:19:12;19.00;69.90
24426;DHT22;12611;44.446;26.000;2022-11-04T10:21:52;19.10;70.20
24426;DHT22;12611;44.446;26.000;2022-11-04T10:24:32;19.10;69.70
24426;DHT22;12611;44.446;26.000;2022-11-04T10:27:10;19.20;69.20
24426;DHT22;12611;44.446;26.000;2022-11-04T10:29:42;19.30;69.20
24426;DHT22;12611;44.446;26.000;2022-11-04T10:32:15;19.30;69.30
24426;DHT22;12611;44.446;26.000;2022-11-04T10:34:51;19.40;69.20
24426;DHT22;12611;44.446;26.000;2022-11-04T10:37:23;19.50;69.00
24426;DHT22;12611;44.446;26.000;2022-11-04T10:39:57;19.50;68.50
24426;DHT22;12611;44.446;26.000;2022-11-04T10:42:27;19.60;68.00
24426;DHT22;12611;44.446;26.000;2022-11-04T10:44:55;19.70;67.90
24426;DHT22;12611;44.446;26.000;2022-11-04T10:47:34;19.70;67.70
24426;DHT22;12611;44.446;26.000;2022-11-04T10:50:23;19.80;67.90
24426;DHT22;12611;44.446;26.000;2022-11-04T10:53:07;19.90;66.30
24426;DHT22;12611;44.446;26.000;2022-11-04T10:55:42;19.90;66.10
24426;DHT22;12611;44.446;26.000;2022-11-04T10:58:18;20.00;66.30
24426;DHT22;12611;44.446;26.000;2022-11-04T11:00:47;20.10;65.90
24426;DHT22;12611;44.446;26.000;2022-11-04T11:03:28;20.10;65.20
24426;DHT22;12611;44.446;26.000;2022-11-04T11:06:13;20.10;65.50
24426;DHT22;12611;44.446;26.000;2022-11-04T11:08:46;20.20;65.50
24426;DHT22;12611;44.446;26.000;2022-11-04T11:11:15;20.20;65.70
24426;DHT22;12611;44.446;26.000;2022-11-04T11:13:44;20.20;65.70
24426;DHT22;12611;44.446;26.000;2022-11-04T11:16:18;20.30;65.60
24426;DHT22;12611;44.446;26.000;2022-11-04T11:19:11;20.40;64.60
24426;DHT22;12611;44.446;26.000;2022-11-04T11:21:43;20.40;64.20
24426;DHT22;12611;44.446;26.000;2022-11-04T11:24:19;20.40;64.40
24426;DHT22;12611;44.446;26.000;2022-11-04T11:26:49;20.50;64.30
24426;DHT22;12611;44.446;26.000;2022-11-04T11:29:22;20.60;64.20
24426;DHT22;12611;44.446;26.000;2022-11-04T11:31:52;20.70;64.50
24426;DHT22;12611;44.446;26.000;2022-11-04T11:34:24;20.70;64.40
24426;DHT22;12611;44.446;26.000;2022-11-04T11:36:54;20.80;64.70
24426;DHT22;12611;44.446;26.000;2022-11-04T11:39:26;20.80;64.40
24426;DHT22;12611;44.446;26.000;2022-11-04T11:41:58;20.90;64.00
24426;DHT22;12611;44.446;26.000;2022-11-04T11:44:30;20.90;63.30
24426;DHT22;12611;44.446;26.000;2022-11-04T11:47:02;21.00;63.00
24426;DHT22;12611;44.446;26.000;2022-11-04T11:49:32;21.00;62.60
24426;DHT22;12611;44.446;26.000;2022-11-04T11:52:30;21.20;62.20
24426;DHT22;12611;44.446;26.000;2022-11-04T11:55:04;21.10;61.90
24426;DHT22;12611;44.446;26.000;2022-11-04T11:57:44;21.20;62.00
24426;DHT22;12611;44.446;26.000;2022-11-04T12:00:40;21.20;61.50
24426;DHT22;12611;44.446;26.000;2022-11-04T12:03:20;21.20;61.40
24426;DHT22;12611;44.446;26.000;2022-11-04T12:06:03;21.20;60.80
24426;DHT22;12611;44.446;26.000;2022-11-04T12:09:10;21.20;61.40
24426;DHT22;12611;44.446;26.000;2022-11-04T12:12:11;21.30;61.30
24426;DHT22;12611;44.446;26.000;2022-11-04T12:14:56;21.40;61.30
24426;DHT22;12611;44.446;26.000;2022-11-04T12:17:43;21.40;61.30
24426;DHT22;12611;44.446;26.000;2022-11-04T12:20:28;21.40;61.40
24426;DHT22;12611;44.446;26.000;2022-11-04T12:23:05;21.40;61.50
24426;DHT22;12611;44.446;26.000;2022-11-04T12:25:43;21.40;61.10
24426;DHT22;12611;44.446;26.000;2022-11-04T12:28:24;21.50;60.90
24426;DHT22;12611;44.446;26.000;2022-11-04T12:31:06;21.50;60.90
24426;DHT22;12611;44.446;26.000;2022-11-04T12:33:45;21.50;60.70
24426;DHT22;12611;44.446;26.000;2022-11-04T12:36:24;21.50;59.90
24426;DHT22;12611;44.446;26.000;2022-11-04T12:39:13;21.50;59.70
24426;DHT22;12611;44.446;26.000;2022-11-04T12:41:51;21.60;59.70
24426;DHT22;12611;44.446;26.000;2022-11-04T12:44:50;21.70;59.70
24426;DHT22;12611;44.446;26.000;2022-11-04T12:47:30;21.80;59.80
24426;DHT22;12611;44.446;26.000;2022-11-04T12:53:23;21.90;59.40
24426;DHT22;12611;44.446;26.000;2022-11-04T12:56:00;22.00;59.60
24426;DHT22;12611;44.446;26.000;2022-11-04T12:59:06;22.00;59.60
24426;DHT22;12611;44.446;26.000;2022-11-04T13:01:41;22.10;59.60
24426;DHT22;12611;44.446;26.000;2022-11-04T13:04:15;22.20;59.60
24426;DHT22;12611;44.446;26.000;2022-11-04T13:06:47;22.30;59.50
24426;DHT22;12611;44.446;26.000;2022-11-04T13:09:28;22.30;59.00
24426;DHT22;12611;44.446;26.000;2022-11-04T13:12:02;22.50;59.90
24426;DHT22;12611;44.446;26.000;2022-11-04T13:14:36;22.60;59.00
24426;DHT22;12611;44.446;26.000;2022-11-04T13:17:11;22.90;58.70
24426;DHT22;12611;44.446;26.000;2022-11-04T13:19:45;23.00;58.00
24426;DHT22;12611;44.446;26.000;2022-11-04T13:22:18;23.00;57.90
24426;DHT22;12611;44.446;26.000;2022-11-04T13:24:50;22.90;57.80
24426;DHT22;12611;44.446;26.000;2022-11-04T13:27:24;22.80;57.50
24426;DHT22;12611;44.446;26.000;2022-11-04T13:30:07;22.70;57.50
24426;DHT22;12611;44.446;26.000;2022-11-04T13:32:48;22.60;57.80
24426;DHT22;12611;44.446;26.000;2022-11-04T13:35:24;22.70;57.90
24426;DHT22;12611;44.446;26.000;2022-11-04T13:37:58;22.80;57.60
24426;DHT22;12611;44.446;26.000;2022-11-04T13:40:28;22.70;57.70
24426;DHT22;12611;44.446;26.000;2022-11-04T13:43:14;22.60;58.00
24426;DHT22;12611;44.446;26.000;2022-11-04T13:46:03;22.50;58.00
24426;DHT22;12611;44.446;26.000;2022-11-04T13:48:37;22.50;58.20
24426;DHT22;12611;44.446;26.000;2022-11-04T13:51:10;22.40;58.40
24426;DHT22;12611;44.446;26.000;2022-11-04T13:53:45;22.30;58.50
24426;DHT22;12611;44.446;26.000;2022-11-04T13:56:27;22.20;58.50
24426;DHT22;12611;44.446;26.000;2022-11-04T13:59:03;22.10;58.60
24426;DHT22;12611;44.446;26.000;2022-11-04T14:01:33;22.00;58.70
24426;DHT22;12611;44.446;26.000;2022-11-04T14:04:23;22.00;58.50
24426;DHT22;12611;44.446;26.000;2022-11-04T14:06:55;21.90;58.70
24426;DHT22;12611;44.446;26.000;2022-11-04T14:12:33;21.70;59.10
24426;DHT22;12611;44.446;26.000;2022-11-04T14:15:15;21.70;59.20
24426;DHT22;12611;44.446;26.000;2022-11-04T14:18:00;21.60;59.40
24426;DHT22;12611;44.446;26.000;2022-11-04T14:20:34;21.50;59.60
24426;DHT22;12611;44.446;26.000;2022-11-04T14:23:04;21.50;59.70
24426;DHT22;12611;44.446;26.000;2022-11-04T14:25:37;21.30;59.80
24426;DHT22;12611;44.446;26.000;2022-11-04T14:28:17;21.30;60.00
24426;DHT22;12611;44.446;26.000;2022-11-04T14:30:54;21.20;60.10
24426;DHT22;12611;44.446;26.000;2022-11-04T14:33:38;21.20;60.20
24426;DHT22;12611;44.446;26.000;2022-11-04T14:36:33;21.10;60.50
24426;DHT22;12611;44.446;26.000;2022-11-04T14:39:06;21.00;60.80
24426;DHT22;12611;44.446;26.000;2022-11-04T14:41:52;20.90;61.10
24426;DHT22;12611;44.446;26.000;2022-11-04T14:44:30;20.80;61.30
24426;DHT22;12611;44.446;26.000;2022-11-04T14:47:05;20.80;61.70
24426;DHT22;12611;44.446;26.000;2022-11-04T14:49:41;20.70;62.00
24426;DHT22;12611;44.446;26.000;2022-11-04T14:52:23;20.60;62.10
24426;DHT22;12611;44.446;26.000;2022-11-04T14:54:56;20.50;62.30
24426;DHT22;12611;44.446;26.000;2022-11-04T14:57:28;20.50;62.50
24426;DHT22;12611;44.446;26.000;2022-11-04T14:59:57;20.40;62.60
24426;DHT22;12611;44.446;26.000;2022-11-04T15:02:28;20.40;62.80
24426;DHT22;12611;44.446;26.000;2022-11-04T15:04:59;20.20;63.00
24426;DHT22;12611;44.446;26.000;2022-11-04T15:07:37;20.20;63.10
24426;DHT22;12611;44.446;26.000;2022-11-04T15:10:19;20.10;63.30
24426;DHT22;12611;44.446;26.000;2022-11-04T15:12:50;20.00;63.30
24426;DHT22;12611;44.446;26.000;2022-11-04T15:15:29;19.90;63.40
24426;DHT22;12611;44.446;26.000;2022-11-04T15:18:04;19.90;63.60
24426;DHT22;12611;44.446;26.000;2022-11-04T15:20:37;19.80;63.90
24426;DHT22;12611;44.446;26.000;2022-11-04T15:23:13;19.70;64.00
24426;DHT22;12611;44.446;26.000;2022-11-04T15:25:47;19.60;64.10
24426;DHT22;12611;44.446;26.000;2022-11-04T15:28:18;19.50;64.20
24426;DHT22;12611;44.446;26.000;2022-11-04T15:31:06;19.50;64.50
24426;DHT22;12611;44.446;26.000;2022-11-04T15:33:39;19.40;64.50
24426;DHT22;12611;44.446;26.000;2022-11-04T15:36:13;19.40;64.60
24426;DHT22;12611;44.446;26.000;2022-11-04T15:38:45;19.30;64.70
24426;DHT22;12611;44.446;26.000;2022-11-04T15:41:14;19.30;65.70
24426;DHT22;12611;44.446;26.000;2022-11-04T15:44:06;19.20;64.80
24426;DHT22;12611;44.446;26.000;2022-11-04T15:46:47;19.10;64.80
24426;DHT22;12611;44.446;26.000;2022-11-04T15:49:21;19.10;65.00
24426;DHT22;12611;44.446;26.000;2022-11-04T15:51:53;19.00;65.10
24426;DHT22;12611;44.446;26.000;2022-11-04T15:54:25;19.00;65.20
24426;DHT22;12611;44.446;26.000;2022-11-04T15:56:57;18.90;65.40
24426;DHT22;12611;44.446;26.000;2022-11-04T15:59:29;18.90;65.60
24426;DHT22;12611;44.446;26.000;2022-11-04T16:01:58;18.90;65.80
24426;DHT22;12611;44.446;26.000;2022-11-04T16:04:29;18.80;65.80
24426;DHT22;12611;44.446;26.000;2022-11-04T16:07:20;18.80;66.00
24426;DHT22;12611;44.446;26.000;2022-11-04T16:09:51;18.70;66.10